sensor_id;sensor_type;location;lat;lon;timestamp;pressure;altitude;pressure_sealevel;temperature;humidity
38303;BME280;24103;42.454;27.400;2023-07-24T00:00:14;100805.88;;;23.43;100.00
38303;BME280;24103;42.454;27.400;2023-07-24T00:02:40;100799.78;;;23.49;100.00
38303;BME280;24103;42.454;27.400;2023-07-24T00:05:06;100807.53;;;23.52;100.00
38303;BME280;24103;42.454;27.400;2023-07-24T00:07:31;100800.47;;;23.51;100.00
38303;BME280;24103;42.454;27.400;2023-07-24T00:09:57;100798.78;;;23.50;100.00
38303;BME280;24103;42.454;27.400;2023-07-24T00:12:22;100790.00;;;23.40;100.00
38303;BME280;24103;42.454;27.400;2023-07-24T00:14:48;100795.25;;;23.50;100.00
38303;BME280;24103;42.454;27.400;2023-07-24T00:17:13;100804.50;;;23.47;100.00
38303;BME280;24103;42.454;27.400;2023-07-24T00:19:39;100802.69;;;23.56;100.00
38303;BME280;24103;42.454;27.400;2023-07-24T00:22:05;100796.75;;;23.52;100.00
38303;BME280;24103;42.454;27.400;2023-07-24T00:24:31;100800.97;;;23.55;100.00
38303;BME280;24103;42.454;27.400;2023-07-24T00:26:57;100797.09;;;23.49;100.00
38303;BME280;24103;42.454;27.400;2023-07-24T00:29:23;100793.41;;;23.59;100.00
38303;BME280;24103;42.454;27.400;2023-07-24T00:31:48;100794.06;;;23.52;100.00
38303;BME280;24103;42.454;27.400;2023-07-24T00:34:14;100800.31;;;23.61;100.00
38303;BME280;24103;42.454;27.400;2023-07-24T00:36:39;100803.69;;;23.63;100.00
38303;BME280;24103;42.454;27.400;2023-07-24T00:39:05;100799.28;;;23.54;100.00
38303;BME280;24103;42.454;27.400;2023-07-24T00:41:30;100794.22;;;23.51;100.00
38303;BME280;24103;42.454;27.400;2023-07-24T00:43:56;100800.16;;;23.54;100.00
38303;BME280;24103;42.454;27.400;2023-07-24T00:46:21;100794.94;;;23.61;100.00
38303;BME280;24103;42.454;27.400;2023-07-24T00:48:47;100798.97;;;23.65;100.00
38303;BME280;24103;42.454;27.400;2023-07-24T00:51:13;100790.69;;;23.67;100.00
38303;BME280;24103;42.454;27.400;2023-07-24T00:53:38;100795.09;;;23.68;100.00
38303;BME280;24103;42.454;27.400;2023-07-24T00:56:04;100790.38;;;23.70;100.00
38303;BME280;24103;42.454;27.400;2023-07-24T00:58:30;100791.91;;;23.64;100.00
38303;BME280;24103;42.454;27.400;2023-07-24T01:00:56;100794.06;;;23.61;100.00
38303;BME280;24103;42.454;27.400;2023-07-24T01:03:26;100795.56;;;23.39;100.00
38303;BME280;24103;42.454;27.400;2023-07-24T01:05:56;100807.34;;;23.29;100.00
38303;BME280;24103;42.454;27.400;2023-07-24T01:08:22;100799.44;;;23.36;100.00
38303;BME280;24103;42.454;27.400;2023-07-24T01:10:48;100808.53;;;23.18;100.00
38303;BME280;24103;42.454;27.400;2023-07-24T01:13:19;100814.56;;;23.12;100.00
38303;BME280;24103;42.454;27.400;2023-07-24T01:16:03;100813.41;;;23.23;100.00
38303;BME280;24103;42.454;27.400;2023-07-24T01:18:33;100816.47;;;23.28;100.00
38303;BME280;24103;42.454;27.400;2023-07-24T01:21:04;100811.25;;;23.35;100.00
38303;BME280;24103;42.454;27.400;2023-07-24T01:23:55;100816.63;;;23.35;100.00
38303;BME280;24103;42.454;27.400;2023-07-24T01:26:24;100810.38;;;23.34;100.00
38303;BME280;24103;42.454;27.400;2023-07-24T01:28:50;100812.25;;;23.42;100.00
38303;BME280;24103;42.454;27.400;2023-07-24T01:31:16;100801.47;;;23.50;100.00
38303;BME280;24103;42.454;27.400;2023-07-24T01:33:43;100806.72;;;23.52;100.00
38303;BME280;24103;42.454;27.400;2023-07-24T01:36:10;100811.09;;;23.53;100.00
38303;BME280;24103;42.454;27.400;2023-07-24T01:38:36;100808.75;;;23.58;100.00
38303;BME280;24103;42.454;27.400;2023-07-24T01:41:05;100813.63;;;23.54;100.00
38303;BME280;24103;42.454;27.400;2023-07-24T01:43:31;100807.88;;;23.41;100.00
38303;BME280;24103;42.454;27.400;2023-07-24T01:45:57;100806.84;;;23.26;100.00
38303;BME280;24103;42.454;27.400;2023-07-24T01:48:23;100806.34;;;23.22;100.00
38303;BME280;24103;42.454;27.400;2023-07-24T01:50:49;100804.97;;;23.26;100.00
38303;BME280;24103;42.454;27.400;2023-07-24T01:53:15;100808.72;;;23.33;100.00
38303;BME280;24103;42.454;27.400;2023-07-24T01:55:40;100801.78;;;23.23;100.00
38303;BME280;24103;42.454;27.400;2023-07-24T01:58:06;100804.81;;;23.28;100.00
38303;BME280;24103;42.454;27.400;2023-07-24T02:00:31;100805.66;;;23.20;100.00
38303;BME280;24103;42.454;27.400;2023-07-24T02:02:57;100804.28;;;23.16;100.00
38303;BME280;24103;42.454;27.400;2023-07-24T02:05:22;100816.06;;;23.07;100.00
38303;BME280;24103;42.454;27.400;2023-07-24T02:07:48;100805.72;;;22.94;100.00
38303;BME280;24103;42.454;27.400;2023-07-24T02:10:13;100809.22;;;22.86;100.00
38303;BME280;24103;42.454;27.400;2023-07-24T02:12:39;100804.16;;;22.83;100.00
38303;BME280;24103;42.454;27.400;2023-07-24T02:15:05;100807.16;;;22.80;100.00
38303;BME280;24103;42.454;27.400;2023-07-24T02:17:31;100806.69;;;22.85;100.00
38303;BME280;24103;42.454;27.400;2023-07-24T02:19:57;100808.56;;;22.92;100.00
38303;BME280;24103;42.454;27.400;2023-07-24T02:22:23;100806.00;;;22.82;100.00
38303;BME280;24103;42.454;27.400;2023-07-24T02:24:49;100809.06;;;22.88;100.00
38303;BME280;24103;42.454;27.400;2023-07-24T02:27:29;100805.38;;;22.89;100.00
38303;BME280;24103;42.454;27.400;2023-07-24T02:29:56;100804.63;;;22.78;100.00
38303;BME280;24103;42.454;27.400;2023-07-24T02:32:22;100812.72;;;22.78;100.00
38303;BME280;24103;42.454;27.400;2023-07-24T02:34:52;100806.34;;;22.79;100.00
38303;BME280;24103;42.454;27.400;2023-07-24T02:37:18;100804.31;;;22.81;100.00
38303;BME280;24103;42.454;27.400;2023-07-24T02:39:44;100802.28;;;22.75;100.00
38303;BME280;24103;42.454;27.400;2023-07-24T02:42:10;100801.09;;;22.78;100.00
38303;BME280;24103;42.454;27.400;2023-07-24T02:44:35;100803.09;;;22.68;100.00
38303;BME280;24103;42.454;27.400;2023-07-24T02:47:01;100797.38;;;22.71;100.00
38303;BME280;24103;42.454;27.400;2023-07-24T02:49:27;100797.50;;;22.61;100.00
38303;BME280;24103;42.454;27.400;2023-07-24T02:51:52;100792.00;;;22.71;100.00
38303;BME280;24103;42.454;27.400;2023-07-24T02:54:18;100796.56;;;22.78;100.00
38303;BME280;24103;42.454;27.400;2023-07-24T02:56:43;100792.03;;;22.79;100.00
38303;BME280;24103;42.454;27.400;2023-07-24T02:59:08;100795.88;;;22.76;100.00
38303;BME280;24103;42.454;27.400;2023-07-24T03:01:34;100801.22;;;22.68;100.00
38303;BME280;24103;42.454;27.400;2023-07-24T03:03:59;100789.78;;;22.66;100.00
38303;BME280;24103;42.454;27.400;2023-07-24T03:06:25;100791.50;;;22.67;100.00
38303;BME280;24103;42.454;27.400;2023-07-24T03:08:51;100790.47;;;22.68;100.00
38303;BME280;24103;42.454;27.400;2023-07-24T03:11:16;100797.88;;;22.66;100.00
38303;BME280;24103;42.454;27.400;2023-07-24T03:13:42;100797.22;;;22.72;100.00
38303;BME280;24103;42.454;27.400;2023-07-24T03:16:08;100803.31;;;22.82;100.00
38303;BME280;24103;42.454;27.400;2023-07-24T03:18:33;100814.00;;;23.00;100.00
38303;BME280;24103;42.454;27.400;2023-07-24T03:20:59;100813.00;;;23.02;100.00
38303;BME280;24103;42.454;27.400;2023-07-24T03:23:24;100806.81;;;23.09;100.00
38303;BME280;24103;42.454;27.400;2023-07-24T03:25:50;100810.09;;;23.62;100.00
38303;BME280;24103;42.454;27.400;2023-07-24T03:28:15;100789.59;;;24.58;100.00
38303;BME280;24103;42.454;27.400;2023-07-24T03:30:41;100792.31;;;25.21;100.00
38303;BME280;24103;42.454;27.400;2023-07-24T03:33:06;100781.03;;;26.17;100.00
38303;BME280;24103;42.454;27.400;2023-07-24T03:35:33;100771.84;;;26.92;100.00
38303;BME280;24103;42.454;27.400;2023-07-24T03:37:58;100763.47;;;27.73;100.00
38303;BME280;24103;42.454;27.400;2023-07-24T03:40:24;100766.50;;;28.07;96.51
38303;BME280;24103;42.454;27.400;2023-07-24T03:42:49;100758.56;;;28.47;91.54
38303;BME280;24103;42.454;27.400;2023-07-24T03:45:15;100757.00;;;29.34;84.95
38303;BME280;24103;42.454;27.400;2023-07-24T03:47:40;100740.19;;;30.24;77.67
38303;BME280;24103;42.454;27.400;2023-07-24T03:50:06;100733.50;;;30.79;73.73
38303;BME280;24103;42.454;27.400;2023-07-24T03:52:31;100726.56;;;31.47;69.47
38303;BME280;24103;42.454;27.400;2023-07-24T03:54:57;100738.19;;;32.11;66.66
38303;BME280;24103;42.454;27.400;2023-07-24T03:57:22;100726.22;;;32.61;62.67
38303;BME280;24103;42.454;27.400;2023-07-24T03:59:48;100727.31;;;33.20;59.71
38303;BME280;24103;42.454;27.400;2023-07-24T04:02:13;100725.00;;;33.59;57.53
38303;BME280;24103;42.454;27.400;2023-07-24T04:04:39;100731.53;;;33.58;56.99
38303;BME280;24103;42.454;27.400;2023-07-24T04:07:05;100737.41;;;33.97;54.68
38303;BME280;24103;42.454;27.400;2023-07-24T04:09:30;100731.44;;;34.01;53.82
38303;BME280;24103;42.454;27.400;2023-07-24T04:11:56;100725.91;;;34.65;51.67
38303;BME280;24103;42.454;27.400;2023-07-24T04:14:21;100719.09;;;34.79;50.26
38303;BME280;24103;42.454;27.400;2023-07-24T04:16:47;100725.84;;;34.88;50.10
38303;BME280;24103;42.454;27.400;2023-07-24T04:19:13;100721.03;;;34.96;49.33
38303;BME280;24103;42.454;27.400;2023-07-24T04:21:38;100716.50;;;35.35;48.89
38303;BME280;24103;42.454;27.400;2023-07-24T04:24:04;100719.56;;;35.73;47.67
38303;BME280;24103;42.454;27.400;2023-07-24T04:26:29;100712.78;;;36.37;46.13
38303;BME280;24103;42.454;27.400;2023-07-24T04:28:55;100712.28;;;36.67;44.50
38303;BME280;24103;42.454;27.400;2023-07-24T04:31:20;100721.47;;;36.50;44.12
38303;BME280;24103;42.454;27.400;2023-07-24T04:33:46;100715.44;;;36.53;43.96
38303;BME280;24103;42.454;27.400;2023-07-24T04:36:12;100716.53;;;36.75;43.70
38303;BME280;24103;42.454;27.400;2023-07-24T04:38:37;100719.44;;;36.41;44.21
38303;BME280;24103;42.454;27.400;2023-07-24T04:41:04;100725.72;;;35.97;45.21
38303;BME280;24103;42.454;27.400;2023-07-24T04:43:30;100718.53;;;36.35;44.10
38303;BME280;24103;42.454;27.400;2023-07-24T04:45:55;100724.88;;;36.85;43.05
38303;BME280;24103;42.454;27.400;2023-07-24T04:48:21;100724.72;;;37.61;41.19
38303;BME280;24103;42.454;27.400;2023-07-24T04:50:47;100720.28;;;37.98;39.88
38303;BME280;24103;42.454;27.400;2023-07-24T04:53:17;100718.50;;;38.24;39.63
38303;BME280;24103;42.454;27.400;2023-07-24T04:55:45;100709.53;;;38.65;38.39
38303;BME280;24103;42.454;27.400;2023-07-24T04:58:11;100706.88;;;39.06;37.30
38303;BME280;24103;42.454;27.400;2023-07-24T05:00:36;100706.28;;;39.30;36.94
38303;BME280;24103;42.454;27.400;2023-07-24T05:03:02;100710.69;;;39.56;36.89
38303;BME280;24103;42.454;27.400;2023-07-24T05:05:28;100702.41;;;39.51;36.59
38303;BME280;24103;42.454;27.400;2023-07-24T05:07:53;100706.84;;;39.42;35.90
38303;BME280;24103;42.454;27.400;2023-07-24T05:10:19;100709.59;;;39.57;36.17
38303;BME280;24103;42.454;27.400;2023-07-24T05:12:44;100714.88;;;39.54;36.21
38303;BME280;24103;42.454;27.400;2023-07-24T05:15:10;100719.28;;;39.65;36.31
38303;BME280;24103;42.454;27.400;2023-07-24T05:17:35;100724.22;;;39.68;36.29
38303;BME280;24103;42.454;27.400;2023-07-24T05:20:01;100717.59;;;39.74;35.77
38303;BME280;24103;42.454;27.400;2023-07-24T05:22:26;100718.94;;;39.82;35.66
38303;BME280;24103;42.454;27.400;2023-07-24T05:24:52;100725.88;;;39.79;36.55
38303;BME280;24103;42.454;27.400;2023-07-24T05:27:17;100716.06;;;40.23;35.01
38303;BME280;24103;42.454;27.400;2023-07-24T05:29:43;100719.53;;;40.55;34.76
38303;BME280;24103;42.454;27.400;2023-07-24T05:32:08;100710.38;;;40.59;34.58
38303;BME280;24103;42.454;27.400;2023-07-24T05:34:34;100715.41;;;40.92;34.10
38303;BME280;24103;42.454;27.400;2023-07-24T05:36:59;100720.47;;;40.79;34.07
38303;BME280;24103;42.454;27.400;2023-07-24T05:39:25;100715.22;;;40.78;33.35
38303;BME280;24103;42.454;27.400;2023-07-24T05:41:51;100716.91;;;40.74;33.60
38303;BME280;24103;42.454;27.400;2023-07-24T05:44:16;100723.63;;;41.07;33.06
38303;BME280;24103;42.454;27.400;2023-07-24T05:46:42;100726.16;;;41.38;32.47
38303;BME280;24103;42.454;27.400;2023-07-24T05:49:07;100730.13;;;41.21;33.46
38303;BME280;24103;42.454;27.400;2023-07-24T05:51:33;100712.16;;;41.53;32.34
38303;BME280;24103;42.454;27.400;2023-07-24T05:53:58;100714.00;;;41.58;31.90
38303;BME280;24103;42.454;27.400;2023-07-24T05:56:24;100718.75;;;41.87;31.68
38303;BME280;24103;42.454;27.400;2023-07-24T05:58:49;100715.38;;;41.90;31.25
38303;BME280;24103;42.454;27.400;2023-07-24T06:01:15;100710.84;;;41.75;32.11
38303;BME280;24103;42.454;27.400;2023-07-24T06:03:40;100708.66;;;41.72;31.88
38303;BME280;24103;42.454;27.400;2023-07-24T06:06:06;100714.81;;;41.00;33.04
38303;BME280;24103;42.454;27.400;2023-07-24T06:08:31;100716.75;;;41.63;32.60
38303;BME280;24103;42.454;27.400;2023-07-24T06:10:57;100709.09;;;41.50;32.70
38303;BME280;24103;42.454;27.400;2023-07-24T06:13:22;100709.09;;;41.55;32.31
38303;BME280;24103;42.454;27.400;2023-07-24T06:15:49;100721.53;;;42.06;31.64
38303;BME280;24103;42.454;27.400;2023-07-24T06:18:14;100709.25;;;41.63;31.81
38303;BME280;24103;42.454;27.400;2023-07-24T06:20:40;100723.28;;;42.02;31.98
38303;BME280;24103;42.454;27.400;2023-07-24T06:23:05;100719.88;;;42.29;32.00
38303;BME280;24103;42.454;27.400;2023-07-24T06:25:31;100719.19;;;42.80;30.49
38303;BME280;24103;42.454;27.400;2023-07-24T06:27:57;100698.72;;;42.95;30.30
38303;BME280;24103;42.454;27.400;2023-07-24T06:30:23;100689.59;;;43.08;30.21
38303;BME280;24103;42.454;27.400;2023-07-24T06:32:48;100693.03;;;42.81;29.89
38303;BME280;24103;42.454;27.400;2023-07-24T06:35:14;100687.22;;;42.64;29.58
38303;BME280;24103;42.454;27.400;2023-07-24T06:37:39;100678.97;;;43.57;29.19
38303;BME280;24103;42.454;27.400;2023-07-24T06:40:06;100669.72;;;43.90;28.27
38303;BME280;24103;42.454;27.400;2023-07-24T06:42:32;100675.19;;;43.81;27.80
38303;BME280;24103;42.454;27.400;2023-07-24T06:44:58;100667.53;;;43.73;27.75
38303;BME280;24103;42.454;27.400;2023-07-24T06:47:23;100674.34;;;44.22;27.54
38303;BME280;24103;42.454;27.400;2023-07-24T06:49:49;100672.88;;;43.55;27.94
38303;BME280;24103;42.454;27.400;2023-07-24T06:52:14;100674.78;;;43.27;29.44
38303;BME280;24103;42.454;27.400;2023-07-24T06:54:39;100678.53;;;43.64;28.66
38303;BME280;24103;42.454;27.400;2023-07-24T06:57:05;100676.19;;;43.71;27.04
38303;BME280;24103;42.454;27.400;2023-07-24T06:59:30;100665.47;;;44.06;26.96
38303;BME280;24103;42.454;27.400;2023-07-24T07:01:56;100672.84;;;44.39;27.17
38303;BME280;24103;42.454;27.400;2023-07-24T07:04:21;100673.06;;;44.28;26.10
38303;BME280;24103;42.454;27.400;2023-07-24T07:06:47;100657.75;;;44.76;24.56
38303;BME280;24103;42.454;27.400;2023-07-24T07:09:12;100651.72;;;44.83;24.61
38303;BME280;24103;42.454;27.400;2023-07-24T07:11:38;100643.38;;;45.05;22.46
38303;BME280;24103;42.454;27.400;2023-07-24T07:14:04;100638.13;;;45.04;23.95
38303;BME280;24103;42.454;27.400;2023-07-24T07:16:29;100644.75;;;44.71;24.80
38303;BME280;24103;42.454;27.400;2023-07-24T07:18:55;100637.81;;;44.60;22.38
38303;BME280;24103;42.454;27.400;2023-07-24T07:21:20;100628.38;;;44.33;23.44
38303;BME280;24103;42.454;27.400;2023-07-24T07:23:46;100641.78;;;45.13;23.82
38303;BME280;24103;42.454;27.400;2023-07-24T07:26:11;100642.94;;;44.67;23.99
38303;BME280;24103;42.454;27.400;2023-07-24T07:28:37;100649.78;;;44.47;25.01
38303;BME280;24103;42.454;27.400;2023-07-24T07:31:03;100633.00;;;44.97;23.75
38303;BME280;24103;42.454;27.400;2023-07-24T07:33:29;100634.34;;;44.04;24.68
38303;BME280;24103;42.454;27.400;2023-07-24T07:35:55;100641.00;;;44.31;25.10
38303;BME280;24103;42.454;27.400;2023-07-24T07:38:20;100640.91;;;45.04;24.76
38303;BME280;24103;42.454;27.400;2023-07-24T07:40:48;100622.84;;;45.33;23.54
38303;BME280;24103;42.454;27.400;2023-07-24T07:43:13;100625.38;;;45.52;23.29
38303;BME280;24103;42.454;27.400;2023-07-24T07:45:39;100627.06;;;45.61;23.76
38303;BME280;24103;42.454;27.400;2023-07-24T07:48:05;100623.19;;;45.80;23.07
38303;BME280;24103;42.454;27.400;2023-07-24T07:50:30;100632.09;;;45.42;24.58
38303;BME280;24103;42.454;27.400;2023-07-24T07:52:56;100628.56;;;45.68;23.88
38303;BME280;24103;42.454;27.400;2023-07-24T07:55:21;100632.56;;;46.02;23.80
38303;BME280;24103;42.454;27.400;2023-07-24T07:57:47;100629.88;;;45.70;23.53
38303;BME280;24103;42.454;27.400;2023-07-24T08:00:13;100629.19;;;44.93;24.45
38303;BME280;24103;42.454;27.400;2023-07-24T08:02:38;100627.31;;;44.21;25.17
38303;BME280;24103;42.454;27.400;2023-07-24T08:05:08;100623.06;;;44.23;25.48
38303;BME280;24103;42.454;27.400;2023-07-24T08:07:33;100628.88;;;43.99;26.01
38303;BME280;24103;42.454;27.400;2023-07-24T08:09:59;100630.72;;;43.76;25.31
38303;BME280;24103;42.454;27.400;2023-07-24T08:12:24;100612.16;;;43.16;25.31
38303;BME280;24103;42.454;27.400;2023-07-24T08:14:50;100624.03;;;42.56;26.35
38303;BME280;24103;42.454;27.400;2023-07-24T08:17:15;100628.13;;;41.96;27.70
38303;BME280;24103;42.454;27.400;2023-07-24T08:19:41;100634.59;;;41.14;29.12
38303;BME280;24103;42.454;27.400;2023-07-24T08:22:06;100635.88;;;40.13;30.03
38303;BME280;24103;42.454;27.400;2023-07-24T08:24:35;100641.38;;;39.27;31.82
38303;BME280;24103;42.454;27.400;2023-07-24T08:27:01;100644.34;;;38.53;32.50
38303;BME280;24103;42.454;27.400;2023-07-24T08:29:27;100648.06;;;37.58;34.18
38303;BME280;24103;42.454;27.400;2023-07-24T08:31:52;100650.88;;;36.39;35.76
38303;BME280;24103;42.454;27.400;2023-07-24T08:34:18;100643.66;;;35.50;36.35
38303;BME280;24103;42.454;27.400;2023-07-24T08:36:43;100659.41;;;34.86;37.74
38303;BME280;24103;42.454;27.400;2023-07-24T08:39:08;100659.44;;;34.75;39.01
38303;BME280;24103;42.454;27.400;2023-07-24T08:41:34;100661.75;;;34.37;39.71
38303;BME280;24103;42.454;27.400;2023-07-24T08:44:01;100657.75;;;34.45;40.18
38303;BME280;24103;42.454;27.400;2023-07-24T08:46:27;100666.44;;;34.13;40.16
38303;BME280;24103;42.454;27.400;2023-07-24T08:48:54;100663.16;;;33.99;39.06
38303;BME280;24103;42.454;27.400;2023-07-24T08:51:20;100677.59;;;33.83;40.90
38303;BME280;24103;42.454;27.400;2023-07-24T08:53:48;100670.81;;;33.73;41.37
38303;BME280;24103;42.454;27.400;2023-07-24T08:56:14;100673.88;;;33.77;41.97
38303;BME280;24103;42.454;27.400;2023-07-24T08:58:40;100676.19;;;33.14;45.35
38303;BME280;24103;42.454;27.400;2023-07-24T09:01:07;100677.22;;;32.59;48.69
38303;BME280;24103;42.454;27.400;2023-07-24T09:03:33;100682.72;;;32.41;49.06
38303;BME280;24103;42.454;27.400;2023-07-24T09:05:59;100686.59;;;31.96;54.05
38303;BME280;24103;42.454;27.400;2023-07-24T09:11:00;100687.16;;;31.36;56.97
38303;BME280;24103;42.454;27.400;2023-07-24T09:13:26;100687.53;;;31.39;56.42
38303;BME280;24103;42.454;27.400;2023-07-24T09:15:51;100701.84;;;31.10;57.40
38303;BME280;24103;42.454;27.400;2023-07-24T09:18:17;100697.94;;;30.99;61.65
38303;BME280;24103;42.454;27.400;2023-07-24T09:20:43;100692.94;;;30.89;61.07
38303;BME280;24103;42.454;27.400;2023-07-24T09:23:11;100706.56;;;30.89;63.02
38303;BME280;24103;42.454;27.400;2023-07-24T09:25:38;100705.00;;;30.68;62.09
38303;BME280;24103;42.454;27.400;2023-07-24T09:28:15;100702.03;;;30.18;64.76
38303;BME280;24103;42.454;27.400;2023-07-24T09:30:42;100703.91;;;30.24;67.28
38303;BME280;24103;42.454;27.400;2023-07-24T09:33:16;100696.78;;;30.29;67.30
38303;BME280;24103;42.454;27.400;2023-07-24T09:35:41;100695.28;;;30.40;65.86
38303;BME280;24103;42.454;27.400;2023-07-24T09:38:08;100686.25;;;30.46;69.02
38303;BME280;24103;42.454;27.400;2023-07-24T09:40:42;100688.88;;;30.01;66.77
38303;BME280;24103;42.454;27.400;2023-07-24T09:43:37;100686.59;;;30.05;69.65
38303;BME280;24103;42.454;27.400;2023-07-24T09:46:07;100686.19;;;29.68;71.06
38303;BME280;24103;42.454;27.400;2023-07-24T09:48:33;100677.41;;;29.86;69.07
38303;BME280;24103;42.454;27.400;2023-07-24T09:51:00;100692.28;;;29.76;71.90
38303;BME280;24103;42.454;27.400;2023-07-24T09:58:21;100685.81;;;29.44;76.19
38303;BME280;24103;42.454;27.400;2023-07-24T10:00:48;100689.75;;;29.62;78.65
38303;BME280;24103;42.454;27.400;2023-07-24T10:03:14;100692.72;;;29.27;79.64
38303;BME280;24103;42.454;27.400;2023-07-24T10:05:44;100687.25;;;29.47;82.38
38303;BME280;24103;42.454;27.400;2023-07-24T10:08:10;100692.72;;;29.60;82.86
38303;BME280;24103;42.454;27.400;2023-07-24T10:10:38;100698.78;;;29.69;84.65
38303;BME280;24103;42.454;27.400;2023-07-24T10:13:04;100699.63;;;29.56;82.79
38303;BME280;24103;42.454;27.400;2023-07-24T10:15:30;100693.16;;;29.44;83.88
38303;BME280;24103;42.454;27.400;2023-07-24T10:18:04;100689.16;;;29.59;83.80
38303;BME280;24103;42.454;27.400;2023-07-24T10:20:34;100680.34;;;29.57;82.58
38303;BME280;24103;42.454;27.400;2023-07-24T10:23:01;100673.66;;;29.80;80.65
38303;BME280;24103;42.454;27.400;2023-07-24T10:25:32;100686.22;;;29.41;83.39
38303;BME280;24103;42.454;27.400;2023-07-24T10:28:06;100682.03;;;29.65;85.98
38303;BME280;24103;42.454;27.400;2023-07-24T10:30:39;100672.84;;;29.39;83.86
38303;BME280;24103;42.454;27.400;2023-07-24T10:35:37;100670.31;;;29.45;86.09
38303;BME280;24103;42.454;27.400;2023-07-24T10:38:03;100665.72;;;29.25;88.07
38303;BME280;24103;42.454;27.400;2023-07-24T10:40:28;100675.13;;;29.56;88.42
38303;BME280;24103;42.454;27.400;2023-07-24T10:43:10;100660.25;;;29.79;82.69
38303;BME280;24103;42.454;27.400;2023-07-24T10:48:05;100668.44;;;29.52;82.50
38303;BME280;24103;42.454;27.400;2023-07-24T10:50:50;100665.50;;;29.33;82.88
38303;BME280;24103;42.454;27.400;2023-07-24T10:53:20;100668.22;;;29.33;87.59
38303;BME280;24103;42.454;27.400;2023-07-24T10:55:46;100665.28;;;29.55;84.52
38303;BME280;24103;42.454;27.400;2023-07-24T10:58:13;100657.78;;;29.37;81.54
38303;BME280;24103;42.454;27.400;2023-07-24T11:00:40;100652.09;;;29.32;83.33
38303;BME280;24103;42.454;27.400;2023-07-24T11:03:13;100647.91;;;29.16;82.58
38303;BME280;24103;42.454;27.400;2023-07-24T11:05:44;100643.09;;;29.31;84.95
38303;BME280;24103;42.454;27.400;2023-07-24T11:08:19;100645.19;;;29.16;82.65
38303;BME280;24103;42.454;27.400;2023-07-24T11:10:50;100636.41;;;29.40;84.41
38303;BME280;24103;42.454;27.400;2023-07-24T11:13:17;100624.69;;;29.53;82.73
38303;BME280;24103;42.454;27.400;2023-07-24T11:15:43;100627.41;;;29.20;82.21
38303;BME280;24103;42.454;27.400;2023-07-24T11:18:09;100614.00;;;29.25;83.33
38303;BME280;24103;42.454;27.400;2023-07-24T11:20:45;100608.34;;;29.27;82.61
38303;BME280;24103;42.454;27.400;2023-07-24T11:23:12;100609.16;;;29.00;82.36
38303;BME280;24103;42.454;27.400;2023-07-24T11:25:37;100616.50;;;29.07;86.97
38303;BME280;24103;42.454;27.400;2023-07-24T11:28:07;100616.50;;;29.00;86.63
38303;BME280;24103;42.454;27.400;2023-07-24T11:30:33;100612.16;;;29.19;85.15
38303;BME280;24103;42.454;27.400;2023-07-24T11:33:00;100603.34;;;29.44;85.20
38303;BME280;24103;42.454;27.400;2023-07-24T11:35:27;100605.63;;;29.40;85.88
38303;BME280;24103;42.454;27.400;2023-07-24T11:37:52;100610.66;;;29.30;86.78
38303;BME280;24103;42.454;27.400;2023-07-24T11:40:18;100616.50;;;29.07;86.17
38303;BME280;24103;42.454;27.400;2023-07-24T11:42:46;100614.84;;;29.06;87.42
38303;BME280;24103;42.454;27.400;2023-07-24T11:45:12;100621.97;;;29.20;84.64
38303;BME280;24103;42.454;27.400;2023-07-24T11:47:48;100618.19;;;29.08;89.36
38303;BME280;24103;42.454;27.400;2023-07-24T11:50:15;100611.50;;;29.44;86.25
38303;BME280;24103;42.454;27.400;2023-07-24T11:52:46;100614.00;;;29.52;83.19
38303;BME280;24103;42.454;27.400;2023-07-24T11:55:15;100617.38;;;29.20;81.59
38303;BME280;24103;42.454;27.400;2023-07-24T11:57:41;100611.28;;;29.25;80.85
38303;BME280;24103;42.454;27.400;2023-07-24T12:00:21;100602.91;;;29.00;82.57
38303;BME280;24103;42.454;27.400;2023-07-24T12:02:46;100603.72;;;28.80;84.92
38303;BME280;24103;42.454;27.400;2023-07-24T12:05:12;100607.94;;;28.90;85.54
38303;BME280;24103;42.454;27.400;2023-07-24T12:07:37;100597.47;;;28.93;86.49
38303;BME280;24103;42.454;27.400;2023-07-24T12:10:04;100597.47;;;29.27;83.10
38303;BME280;24103;42.454;27.400;2023-07-24T12:12:39;100598.91;;;29.56;77.93
38303;BME280;24103;42.454;27.400;2023-07-24T12:15:05;100597.44;;;29.47;79.41
38303;BME280;24103;42.454;27.400;2023-07-24T12:17:30;100587.88;;;29.17;80.36
38303;BME280;24103;42.454;27.400;2023-07-24T12:19:56;100576.53;;;29.40;80.35
38303;BME280;24103;42.454;27.400;2023-07-24T12:22:22;100586.16;;;29.30;77.81
38303;BME280;24103;42.454;27.400;2023-07-24T12:24:47;100589.69;;;29.17;79.79
38303;BME280;24103;42.454;27.400;2023-07-24T12:27:13;100582.81;;;29.34;80.18
38303;BME280;24103;42.454;27.400;2023-07-24T12:29:38;100575.69;;;29.33;80.77
38303;BME280;24103;42.454;27.400;2023-07-24T12:32:04;100569.63;;;29.31;79.87
38303;BME280;24103;42.454;27.400;2023-07-24T12:34:30;100572.34;;;29.31;81.71
38303;BME280;24103;42.454;27.400;2023-07-24T12:36:55;100573.16;;;29.38;82.59
38303;BME280;24103;42.454;27.400;2023-07-24T12:39:21;100575.66;;;29.60;86.12
38303;BME280;24103;42.454;27.400;2023-07-24T12:41:46;100571.88;;;29.61;80.32
38303;BME280;24103;42.454;27.400;2023-07-24T12:44:12;100565.38;;;29.62;82.00
38303;BME280;24103;42.454;27.400;2023-07-24T12:46:37;100568.09;;;29.62;82.33